Time;durP1;ratioP1;P1;durP2;ratioP2;P2;SDS_P1;SDS_P2;PMS_P1;PMS_P2;Temp;Humidity;BMP_temperature;BMP_pressure;BME280_temperature;BME280_humidity;BME280_pressure;Samples;Min_cycle;Max_cycle;Signal;HPM_P1;HPM_P2
2023/06/16 00:01:02;;;;;;;8.27;6.87;;;16.10;99.90;;;;;;5051787;28;20206;-69
2023/06/16 00:03:28;;;;;;;8.37;7.57;;;16.10;99.90;;;;;;5052032;28;20175;-69
2023/06/16 00:05:55;;;;;;;10.27;6.93;;;16.00;99.90;;;;;;5032084;28;20184;-69
2023/06/16 00:08:21;;;;;;;9.97;8.83;;;16.00;99.90;;;;;;5031781;28;20195;-69
2023/06/16 00:10:47;;;;;;;10.17;9.37;;;16.10;99.90;;;;;;5046898;28;20195;-69
2023/06/16 00:13:13;;;;;;;9.90;9.07;;;16.10;99.90;;;;;;5047148;28;20641;-69
2023/06/16 00:15:39;;;;;;;10.30;9.37;;;16.00;99.90;;;;;;5032000;28;20195;-69
2023/06/16 00:18:04;;;;;;;11.80;8.13;;;16.10;99.90;;;;;;5042381;28;20233;-69
2023/06/16 00:20:32;;;;;;;10.07;9.17;;;16.00;99.90;;;;;;5051293;28;20244;-69
2023/06/16 00:22:58;;;;;;;11.00;10.20;;;16.10;99.90;;;;;;5049480;28;20179;-69
2023/06/16 00:25:24;;;;;;;12.23;8.87;;;16.10;99.90;;;;;;5047500;28;20178;-69
2023/06/16 00:27:49;;;;;;;9.40;8.60;;;16.00;99.90;;;;;;5051849;28;20547;-69
2023/06/16 00:30:15;;;;;;;10.47;9.40;;;16.00;99.90;;;;;;5050976;28;20210;-69
2023/06/16 00:32:41;;;;;;;8.57;7.73;;;16.00;99.90;;;;;;5073762;22;20194;-68
2023/06/16 00:35:07;;;;;;;9.97;9.07;;;15.90;99.90;;;;;;5031287;28;20179;-68
2023/06/16 00:37:33;;;;;;;10.03;9.33;;;15.90;99.90;;;;;;5029867;28;20195;-69
2023/06/16 00:39:58;;;;;;;11.37;8.83;;;15.80;99.90;;;;;;5031238;28;20609;-68
2023/06/16 00:42:24;;;;;;;9.10;8.37;;;15.80;99.90;;;;;;5031148;28;20230;-68
2023/06/16 00:44:50;;;;;;;8.63;7.93;;;15.80;99.90;;;;;;5011186;28;20230;-68
2023/06/16 00:47:16;;;;;;;10.83;8.13;;;15.70;99.90;;;;;;4991592;28;20192;-69
2023/06/16 00:49:41;;;;;;;11.77;7.57;;;15.60;99.90;;;;;;4991759;28;20717;-69
2023/06/16 00:52:12;;;;;;;9.67;6.70;;;15.60;99.90;;;;;;4991651;28;20180;-69
2023/06/16 00:54:38;;;;;;;8.33;7.53;;;15.50;99.90;;;;;;4991551;28;20661;-69
2023/06/16 00:57:05;;;;;;;8.87;8.07;;;15.40;99.90;;;;;;4993664;28;20180;-68
2023/06/16 00:59:30;;;;;;;10.03;8.37;;;15.40;99.90;;;;;;4991498;28;20176;-68
2023/06/16 01:01:56;;;;;;;10.10;7.40;;;15.30;99.90;;;;;;4991574;28;20598;-69
2023/06/16 01:04:23;;;;;;;8.10;6.80;;;15.30;99.90;;;;;;4991391;28;20244;-68
2023/06/16 01:07:04;;;;;;;9.27;8.50;;;15.30;99.90;;;;;;4991577;28;20173;-68
2023/06/16 01:10:00;;;;;;;8.67;7.97;;;15.30;99.90;;;;;;4992089;28;20561;-68
2023/06/16 01:12:39;;;;;;;8.37;7.57;;;15.30;99.90;;;;;;5010634;28;20172;-71
2023/06/16 01:15:16;;;;;;;8.50;7.60;;;15.20;99.90;;;;;;5011112;28;20540;-68
2023/06/16 01:17:45;;;;;;;8.20;7.50;;;15.20;99.90;;;;;;5011184;28;20212;-69
2023/06/16 01:20:22;;;;;;;10.50;8.20;;;15.10;99.90;;;;;;5010645;28;20267;-68
2023/06/16 01:23:06;;;;;;;8.23;7.50;;;15.10;99.90;;;;;;5011027;28;20230;-69
2023/06/16 01:25:33;;;;;;;10.87;8.37;;;15.10;99.90;;;;;;5011129;28;20183;-68
2023/06/16 01:28:03;;;;;;;10.37;8.10;;;15.00;99.90;;;;;;5009393;28;20179;-69
2023/06/16 01:30:32;;;;;;;9.60;8.47;;;15.00;99.90;;;;;;5010610;28;20538;-69
2023/06/16 01:33:00;;;;;;;8.80;7.97;;;15.00;99.90;;;;;;5011010;28;20231;-69
2023/06/16 01:35:26;;;;;;;9.17;7.70;;;15.10;99.90;;;;;;5013299;28;20200;-68
2023/06/16 01:37:53;;;;;;;9.17;8.47;;;15.10;99.90;;;;;;5015010;28;20191;-68
2023/06/16 01:40:20;;;;;;;10.47;8.90;;;15.10;99.90;;;;;;5014317;28;20246;-69
2023/06/16 01:42:47;;;;;;;9.60;8.63;;;15.00;99.90;;;;;;5014548;28;20242;-68
2023/06/16 01:45:15;;;;;;;10.63;9.63;;;15.00;99.90;;;;;;5014765;28;20668;-69
2023/06/16 01:47:43;;;;;;;10.60;9.67;;;15.00;99.90;;;;;;5014602;28;20175;-69
2023/06/16 01:50:09;;;;;;;8.70;8.00;;;14.90;99.90;;;;;;5003644;28;20209;-68
2023/06/16 01:52:35;;;;;;;10.20;7.80;;;14.80;99.90;;;;;;4994626;28;20256;-69
2023/06/16 01:55:01;;;;;;;8.00;7.27;;;14.80;99.90;;;;;;4994836;28;20264;-69
2023/06/16 01:57:27;;;;;;;9.80;7.40;;;14.70;99.90;;;;;;4994807;28;20180;-69
2023/06/16 02:00:01;;;;;;;8.57;7.77;;;14.70;99.90;;;;;;4994384;28;20181;-69
2023/06/16 02:02:29;;;;;;;9.10;7.50;;;14.60;99.90;;;;;;4994735;28;20203;-69
2023/06/16 02:04:55;;;;;;;8.43;7.57;;;14.60;99.90;;;;;;4998147;28;20207;-69
2023/06/16 02:07:30;;;;;;;8.40;7.60;;;14.60;99.90;;;;;;5014143;28;20184;-70
2023/06/16 02:09:58;;;;;;;8.90;8.00;;;14.60;99.90;;;;;;5013890;28;20210;-69
2023/06/16 02:12:24;;;;;;;10.83;7.57;;;14.60;99.90;;;;;;5014176;28;20609;-69
2023/06/16 02:14:51;;;;;;;8.40;7.57;;;14.60;99.90;;;;;;5012767;28;20202;-69
2023/06/16 02:17:16;;;;;;;10.97;7.57;;;14.60;99.90;;;;;;5013931;28;20176;-69
2023/06/16 02:19:43;;;;;;;10.43;7.50;;;14.60;99.90;;;;;;5006592;28;20609;-69
2023/06/16 02:22:09;;;;;;;10.67;8.00;;;14.60;99.90;;;;;;4994229;28;20173;-69
2023/06/16 02:24:35;;;;;;;10.80;7.87;;;14.60;99.90;;;;;;4994165;28;20621;-69
2023/06/16 02:27:03;;;;;;;10.10;6.83;;;14.70;99.90;;;;;;4994389;28;20268;-69
2023/06/16 02:29:29;;;;;;;8.17;7.43;;;14.70;99.90;;;;;;4994105;28;20267;-68
2023/06/16 02:31:55;;;;;;;10.73;7.73;;;14.70;99.90;;;;;;4994215;28;20173;-69
2023/06/16 02:34:20;;;;;;;7.63;7.03;;;14.60;99.90;;;;;;4995006;28;20292;-69
2023/06/16 02:36:46;;;;;;;7.43;6.83;;;14.60;99.90;;;;;;5013540;28;20181;-69
2023/06/16 02:39:13;;;;;;;7.90;7.30;;;14.60;99.90;;;;;;5013144;28;20188;-69
2023/06/16 02:41:38;;;;;;;7.20;6.60;;;14.60;99.90;;;;;;5013450;28;20190;-69
2023/06/16 02:44:04;;;;;;;8.23;6.70;;;14.50;99.90;;;;;;5011689;28;20192;-69
2023/06/16 02:46:30;;;;;;;9.70;7.57;;;14.50;99.90;;;;;;5011715;28;20180;-68
2023/06/16 02:48:55;;;;;;;7.90;7.10;;;14.60;99.90;;;;;;5010126;28;20566;-68
2023/06/16 02:51:21;;;;;;;10.60;7.00;;;14.60;99.90;;;;;;4993391;28;20181;-69
2023/06/16 02:53:46;;;;;;;8.27;6.60;;;14.60;99.90;;;;;;4992837;28;20204;-68
2023/06/16 02:56:12;;;;;;;7.30;6.50;;;14.60;99.90;;;;;;4993629;28;20184;-68
2023/06/16 02:58:39;;;;;;;9.37;6.80;;;14.60;99.90;;;;;;4993510;28;20250;-68
2023/06/16 03:01:05;;;;;;;6.90;6.30;;;14.60;99.90;;;;;;4993163;28;20176;-68
2023/06/16 03:03:34;;;;;;;7.63;6.83;;;14.60;99.90;;;;;;4993448;28;20196;-68
2023/06/16 03:06:00;;;;;;;7.77;6.80;;;14.60;99.90;;;;;;5001857;28;20597;-68
2023/06/16 03:08:26;;;;;;;7.47;6.70;;;14.50;99.90;;;;;;5013037;28;20246;-70
2023/06/16 03:10:52;;;;;;;7.70;6.97;;;14.50;99.90;;;;;;5012715;28;20180;-70
2023/06/16 03:13:18;;;;;;;8.03;7.23;;;14.50;99.90;;;;;;5012823;28;20211;-70
2023/06/16 03:15:44;;;;;;;7.67;6.87;;;14.40;99.90;;;;;;5013068;28;20637;-70
2023/06/16 03:18:10;;;;;;;8.27;7.57;;;14.40;99.90;;;;;;5011582;28;20629;-68
2023/06/16 03:20:36;;;;;;;8.13;7.43;;;14.40;99.90;;;;;;5010756;28;20186;-68
2023/06/16 03:23:02;;;;;;;8.30;7.13;;;14.40;99.90;;;;;;5001209;28;20284;-68
2023/06/16 03:25:30;;;;;;;8.73;7.57;;;14.40;99.90;;;;;;4993193;28;20173;-68
2023/06/16 03:27:56;;;;;;;8.20;7.40;;;14.40;99.90;;;;;;4993437;28;20180;-70
2023/06/16 03:30:22;;;;;;;8.17;7.37;;;14.30;99.90;;;;;;4992664;28;20208;-68
2023/06/16 03:32:49;;;;;;;13.10;7.70;;;14.30;99.90;;;;;;4992758;28;20352;-68
2023/06/16 03:35:15;;;;;;;8.17;6.53;;;14.30;99.90;;;;;;4993269;28;20177;-68
2023/06/16 03:37:40;;;;;;;10.43;7.23;;;14.30;99.90;;;;;;5002998;28;20506;-70
2023/06/16 03:40:07;;;;;;;7.43;6.83;;;14.30;99.90;;;;;;5010521;28;20391;-68
2023/06/16 03:42:33;;;;;;;9.37;7.30;;;14.30;99.90;;;;;;5012313;28;20184;-68
2023/06/16 03:44:59;;;;;;;8.33;7.17;;;14.30;99.90;;;;;;5012495;28;20211;-68
2023/06/16 03:47:25;;;;;;;10.00;8.23;;;14.30;99.90;;;;;;5012317;28;20266;-68
2023/06/16 03:49:51;;;;;;;7.83;7.00;;;14.40;99.90;;;;;;5010749;28;20212;-69
2023/06/16 03:52:17;;;;;;;7.83;7.20;;;14.40;99.90;;;;;;5012201;28;20576;-68
2023/06/16 03:54:43;;;;;;;7.83;7.13;;;14.40;99.90;;;;;;5012094;28;20208;-68
2023/06/16 03:57:08;;;;;;;9.63;8.70;;;14.40;99.90;;;;;;5010288;28;20423;-68
2023/06/16 03:59:35;;;;;;;8.07;7.37;;;14.40;99.90;;;;;;5012109;28;20199;-68
2023/06/16 04:02:06;;;;;;;7.37;6.57;;;14.40;99.90;;;;;;5012175;28;20176;-69
2023/06/16 04:04:32;;;;;;;7.20;6.50;;;14.40;99.90;;;;;;5012119;28;20202;-69
2023/06/16 04:06:58;;;;;;;11.20;6.70;;;14.50;99.90;;;;;;5011973;28;20259;-69
2023/06/16 04:09:25;;;;;;;9.10;7.30;;;14.50;99.90;;;;;;5011704;28;20207;-69
2023/06/16 04:11:50;;;;;;;8.20;6.63;;;14.60;99.90;;;;;;4994911;28;20181;-69
2023/06/16 04:14:16;;;;;;;14.40;7.60;;;14.60;99.90;;;;;;5009203;28;20408;-69
2023/06/16 04:16:42;;;;;;;9.60;7.30;;;14.60;99.90;;;;;;5011856;28;20257;-69
2023/06/16 04:19:09;;;;;;;8.23;7.20;;;14.70;99.90;;;;;;5011486;28;20254;-68
2023/06/16 04:21:36;;;;;;;9.60;7.27;;;14.70;99.90;;;;;;5011789;28;20192;-69
2023/06/16 04:24:02;;;;;;;7.53;6.87;;;14.80;99.90;;;;;;5011726;28;20215;-69
2023/06/16 04:26:28;;;;;;;10.23;7.37;;;14.90;99.90;;;;;;5011888;28;20172;-69
2023/06/16 04:28:55;;;;;;;9.23;8.40;;;15.00;99.90;;;;;;5011515;28;20196;-69
2023/06/16 04:31:22;;;;;;;10.70;8.30;;;15.10;99.90;;;;;;5010783;28;20192;-69
2023/06/16 04:33:48;;;;;;;8.03;7.27;;;15.20;99.90;;;;;;5011911;28;20672;-69
2023/06/16 04:36:16;;;;;;;19.07;7.10;;;15.30;99.90;;;;;;5011665;28;20187;-69
2023/06/16 04:38:43;;;;;;;8.27;7.47;;;15.50;99.90;;;;;;4999724;28;20280;-69
2023/06/16 04:41:08;;;;;;;9.40;7.47;;;15.80;99.90;;;;;;4991556;28;20243;-69
2023/06/16 04:43:34;;;;;;;8.77;7.17;;;16.10;99.90;;;;;;4991910;28;20197;-69
2023/06/16 04:45:59;;;;;;;8.57;7.70;;;16.50;99.90;;;;;;4992178;28;20212;-70
2023/06/16 04:48:25;;;;;;;8.67;6.60;;;16.80;99.90;;;;;;4993530;28;20611;-69
2023/06/16 04:50:56;;;;;;;8.10;7.20;;;17.00;99.90;;;;;;4991999;28;20230;-69
2023/06/16 04:53:22;;;;;;;8.33;7.67;;;17.30;99.90;;;;;;4991675;28;20231;-69
2023/06/16 04:55:48;;;;;;;13.73;12.83;;;17.60;99.90;;;;;;4991808;28;20169;-69
2023/06/16 04:58:14;;;;;;;13.23;7.07;;;18.00;99.90;;;;;;4991698;28;20543;-69
2023/06/16 05:00:40;;;;;;;7.03;6.32;;;18.20;99.90;;;;;;4991293;28;20180;-69
2023/06/16 05:03:05;;;;;;;6.18;5.57;;;18.50;99.90;;;;;;4991454;28;20284;-69
2023/06/16 05:05:32;;;;;;;6.72;6.05;;;18.90;99.90;;;;;;4992766;28;20256;-69
2023/06/16 05:07:58;;;;;;;6.78;6.05;;;19.30;99.90;;;;;;4991894;28;20165;-69
2023/06/16 05:10:24;;;;;;;5.80;5.28;;;19.70;99.90;;;;;;4995305;28;20549;-69
2023/06/16 05:12:49;;;;;;;7.20;5.85;;;20.10;99.90;;;;;;4995573;28;20239;-68
2023/06/16 05:15:15;;;;;;;6.43;5.55;;;20.30;99.90;;;;;;4995592;28;20227;-69
2023/06/16 05:17:40;;;;;;;6.50;5.90;;;20.70;99.90;;;;;;4995690;28;20257;-69
2023/06/16 05:20:06;;;;;;;7.20;6.18;;;20.80;99.90;;;;;;4995934;28;20616;-69
2023/06/16 05:22:32;;;;;;;7.18;5.93;;;20.90;99.90;;;;;;5013915;28;20241;-69
2023/06/16 05:24:58;;;;;;;6.68;5.85;;;20.90;99.90;;;;;;5015096;28;20715;-69
2023/06/16 05:27:24;;;;;;;6.55;5.95;;;21.00;99.90;;;;;;5015204;28;20282;-69
2023/06/16 05:29:51;;;;;;;5.95;5.38;;;21.00;99.90;;;;;;5014739;28;20598;-69
2023/06/16 05:32:19;;;;;;;6.25;5.75;;;20.90;99.90;;;;;;5015038;28;20587;-69
2023/06/16 05:34:49;;;;;;;11.20;5.22;;;21.00;99.90;;;;;;5014492;28;20207;-70
2023/06/16 05:37:15;;;;;;;5.50;5.07;;;21.00;99.90;;;;;;5008165;28;20208;-69
2023/06/16 05:39:43;;;;;;;7.30;6.05;;;21.10;99.90;;;;;;4994991;28;20587;-69
2023/06/16 05:42:14;;;;;;;7.93;4.70;;;21.40;99.90;;;;;;4995959;28;20180;-69
2023/06/16 05:44:40;;;;;;;5.38;4.93;;;21.70;99.90;;;;;;4993687;28;20271;-69
2023/06/16 05:47:06;;;;;;;9.18;5.15;;;22.20;99.90;;;;;;4994818;28;20177;-69
2023/06/16 05:49:32;;;;;;;5.43;4.88;;;22.60;99.90;;;;;;4994863;28;20223;-69
2023/06/16 05:51:58;;;;;;;5.60;4.38;;;23.00;99.90;;;;;;4994972;28;20184;-70
2023/06/16 05:54:24;;;;;;;9.55;4.50;;;23.50;99.90;;;;;;4994650;28;20275;-69
2023/06/16 05:56:50;;;;;;;6.20;4.95;;;24.00;99.90;;;;;;4995034;28;20252;-69
2023/06/16 05:59:16;;;;;;;4.80;4.40;;;24.40;99.90;;;;;;4994318;28;20177;-70
2023/06/16 06:01:41;;;;;;;5.85;5.35;;;24.80;99.90;;;;;;4993540;28;20626;-70
2023/06/16 06:04:10;;;;;;;4.70;4.13;;;25.20;99.90;;;;;;4994396;28;20200;-70
2023/06/16 06:06:38;;;;;;;5.70;5.10;;;25.40;99.90;;;;;;4994842;28;20564;-70
2023/06/16 06:09:04;;;;;;;6.93;5.65;;;25.50;99.90;;;;;;5001455;28;20192;-70
2023/06/16 06:11:30;;;;;;;5.05;4.55;;;25.60;99.90;;;;;;5014152;28;20176;-69
2023/06/16 06:13:56;;;;;;;6.07;4.93;;;25.80;99.90;;;;;;5014451;28;20195;-70
2023/06/16 06:16:22;;;;;;;4.85;4.45;;;25.90;99.90;;;;;;5013985;28;20179;-70
2023/06/16 06:18:48;;;;;;;6.18;4.53;;;26.10;99.90;;;;;;5013733;28;20625;-69
2023/06/16 06:21:14;;;;;;;9.40;8.60;;;26.30;99.90;;;;;;5013491;28;20176;-70
2023/06/16 06:23:40;;;;;;;11.68;10.57;;;26.40;99.90;;;;;;5013925;28;20196;-70
2023/06/16 06:26:06;;;;;;;9.90;9.30;;;26.40;99.90;;;;;;5012635;28;20176;-69
2023/06/16 06:28:31;;;;;;;11.07;10.13;;;26.30;99.90;;;;;;5013742;28;20532;-70
2023/06/16 06:30:57;;;;;;;9.02;8.27;;;26.50;99.90;;;;;;5013414;28;20172;-70
2023/06/16 06:33:23;;;;;;;6.38;5.78;;;26.80;99.90;;;;;;5032998;22;20234;-85
2023/06/16 06:35:48;;;;;;;5.88;4.50;;;27.30;99.90;;;;;;5052663;28;20197;-85
2023/06/16 06:38:14;;;;;;;8.35;4.57;;;27.40;99.90;;;;;;5052802;28;20167;-85
2023/06/16 06:40:40;;;;;;;6.57;5.65;;;27.70;99.90;;;;;;5052587;28;20167;-84
2023/06/16 06:43:06;;;;;;;5.70;5.20;;;28.00;99.90;;;;;;5052738;28;20244;-85
2023/06/16 06:45:31;;;;;;;6.95;5.55;;;28.30;98.70;;;;;;5052147;28;20265;-88
2023/06/16 06:47:57;;;;;;;6.82;6.32;;;28.50;98.10;;;;;;5052883;28;20246;-86
2023/06/16 06:50:22;;;;;;;5.97;4.75;;;28.60;97.40;;;;;;5053501;28;20641;-86
2023/06/16 06:52:48;;;;;;;7.07;5.18;;;28.50;98.00;;;;;;5053115;28;20517;-86
2023/06/16 06:55:14;;;;;;;8.13;5.05;;;28.40;98.30;;;;;;5054029;28;20720;-86
2023/06/16 06:57:42;;;;;;;9.27;4.72;;;28.10;98.40;;;;;;5052800;28;20198;-86
2023/06/16 07:00:08;;;;;;;11.18;5.15;;;27.80;97.80;;;;;;5052654;28;20174;-86
2023/06/16 07:02:35;;;;;;;5.72;5.13;;;27.70;97.90;;;;;;5054539;28;20202;-87
2023/06/16 07:05:01;;;;;;;8.10;6.60;;;27.80;98.80;;;;;;5052548;28;20676;-87
2023/06/16 07:07:26;;;;;;;8.93;5.60;;;28.10;99.00;;;;;;5052876;28;20232;-86
2023/06/16 07:09:52;;;;;;;6.13;5.22;;;28.50;99.70;;;;;;5038994;28;20203;-88
2023/06/16 07:12:17;;;;;;;6.10;4.50;;;28.90;97.30;;;;;;5032751;28;20183;-87
2023/06/16 07:14:47;;;;;;;5.00;4.60;;;29.10;98.40;;;;;;5033842;28;20194;-86
2023/06/16 07:17:13;;;;;;;5.63;5.13;;;29.30;94.60;;;;;;5032776;28;20781;-88
2023/06/16 07:19:39;;;;;;;5.13;4.50;;;29.50;95.10;;;;;;5049804;28;20186;-85
2023/06/16 07:22:07;;;;;;;8.02;4.60;;;29.60;95.30;;;;;;5052422;28;20618;-86
2023/06/16 07:24:34;;;;;;;7.30;4.55;;;29.60;94.20;;;;;;5056753;28;20703;-87
2023/06/16 07:27:01;;;;;;;5.50;3.95;;;29.60;94.70;;;;;;5052192;28;20545;-87
2023/06/16 07:29:30;;;;;;;6.93;4.65;;;29.60;95.90;;;;;;5035789;28;20293;-87
2023/06/16 07:31:56;;;;;;;5.38;4.35;;;29.70;92.30;;;;;;5051770;28;20200;-86
2023/06/16 07:34:22;;;;;;;6.57;4.30;;;29.90;94.60;;;;;;5052737;28;20214;-87
2023/06/16 07:36:47;;;;;;;4.47;3.90;;;30.30;93.90;;;;;;5051782;28;20167;-87
2023/06/16 07:39:13;;;;;;;5.50;4.10;;;30.80;93.70;;;;;;5051855;28;20201;-87
2023/06/16 07:41:39;;;;;;;5.97;4.20;;;30.90;92.40;;;;;;5050176;28;20171;-87
2023/06/16 07:44:05;;;;;;;4.90;4.45;;;30.50;92.60;;;;;;5051959;28;20276;-87
2023/06/16 07:46:32;;;;;;;6.00;5.40;;;30.40;91.10;;;;;;5051603;28;20263;-87
2023/06/16 07:48:57;;;;;;;4.47;4.07;;;30.50;92.70;;;;;;5051692;28;20202;-87
2023/06/16 07:51:23;;;;;;;5.03;4.53;;;30.40;91.60;;;;;;5051357;28;20219;-87
2023/06/16 07:53:49;;;;;;;6.05;5.40;;;30.30;90.70;;;;;;5052621;28;20637;-87
2023/06/16 07:56:15;;;;;;;6.95;5.78;;;30.70;94.90;;;;;;5051132;28;20206;-87
2023/06/16 07:58:41;;;;;;;7.50;5.47;;;30.70;90.80;;;;;;5051631;28;20743;-86
2023/06/16 08:01:07;;;;;;;8.43;6.03;;;30.80;91.40;;;;;;5034673;28;20203;-87
2023/06/16 08:03:33;;;;;;;9.00;6.25;;;31.00;91.20;;;;;;5053228;28;20652;-88
2023/06/16 08:05:59;;;;;;;8.02;5.80;;;31.20;91.10;;;;;;5052773;28;20594;-87
2023/06/16 08:08:28;;;;;;;7.03;5.72;;;31.30;91.10;;;;;;5051441;28;20181;-88
2023/06/16 08:10:56;;;;;;;9.48;6.53;;;31.40;91.80;;;;;;5019165;28;20174;-87
2023/06/16 08:13:24;;;;;;;10.27;6.15;;;31.60;92.60;;;;;;5040248;28;20176;-87
2023/06/16 08:15:49;;;;;;;6.90;5.30;;;31.90;92.80;;;;;;5033125;28;20238;-87
2023/06/16 08:18:17;;;;;;;5.93;5.43;;;32.00;85.60;;;;;;5031541;28;20645;-88
2023/06/16 08:20:44;;;;;;;5.78;4.72;;;31.20;87.70;;;;;;5032703;28;20163;-87
2023/06/16 08:23:10;;;;;;;6.13;5.53;;;30.60;90.50;;;;;;5032696;28;20661;-87
2023/06/16 08:25:35;;;;;;;4.88;4.10;;;30.80;92.00;;;;;;5031538;28;20253;-89
2023/06/16 08:28:03;;;;;;;5.22;4.72;;;31.30;87.40;;;;;;5032493;28;20175;-87
2023/06/16 08:30:28;;;;;;;6.82;4.82;;;31.50;86.00;;;;;;5030943;28;20199;-87
2023/06/16 08:32:54;;;;;;;4.53;4.13;;;31.80;86.90;;;;;;5030983;28;20202;-87
2023/06/16 08:35:20;;;;;;;4.22;3.83;;;32.20;88.40;;;;;;5031161;28;20250;-87
2023/06/16 08:37:45;;;;;;;6.90;3.92;;;32.40;83.70;;;;;;5035749;28;20252;-88
2023/06/16 08:40:12;;;;;;;5.90;5.00;;;32.40;80.80;;;;;;5031990;28;20690;-87
2023/06/16 08:42:38;;;;;;;7.20;4.47;;;32.30;83.50;;;;;;5030573;28;20199;-87
2023/06/16 08:45:05;;;;;;;5.00;4.60;;;32.50;82.50;;;;;;5042683;28;20221;-89
2023/06/16 08:47:31;;;;;;;5.07;4.05;;;32.20;77.70;;;;;;5051234;28;20174;-88
2023/06/16 08:49:57;;;;;;;5.25;4.78;;;31.90;76.90;;;;;;5051879;28;20232;-87
2023/06/16 08:52:23;;;;;;;4.82;4.32;;;31.90;70.00;;;;;;5052993;28;20228;-87
2023/06/16 08:54:57;;;;;;;4.75;4.35;;;32.30;79.40;;;;;;5054210;28;20198;-87
2023/06/16 08:57:24;;;;;;;5.10;4.40;;;32.60;79.80;;;;;;5052277;28;20246;-88
2023/06/16 08:59:55;;;;;;;4.68;4.28;;;32.60;71.80;;;;;;5050671;28;20174;-88
2023/06/16 09:02:21;;;;;;;7.75;4.82;;;32.90;76.30;;;;;;5050855;28;20202;-88
2023/06/16 09:04:47;;;;;;;4.70;4.30;;;33.30;78.10;;;;;;5050674;28;20231;-88
2023/06/16 09:07:19;;;;;;;4.32;3.92;;;33.80;70.30;;;;;;5052043;28;20563;-88
2023/06/16 09:09:47;;;;;;;4.82;3.33;;;34.00;65.00;;;;;;5050532;28;20199;-88
2023/06/16 09:12:13;;;;;;;4.47;4.00;;;34.20;63.20;;;;;;5046318;28;20171;-88
2023/06/16 09:14:42;;;;;;;4.85;3.42;;;34.50;57.60;;;;;;5051665;28;20202;-88
2023/06/16 09:17:09;;;;;;;6.00;4.10;;;34.40;55.30;;;;;;5051584;28;20692;-88
2023/06/16 09:19:51;;;;;;;4.80;3.72;;;34.40;56.30;;;;;;5051807;28;20178;-88
2023/06/16 09:22:19;;;;;;;4.15;3.80;;;34.30;55.90;;;;;;5051020;28;20175;-89
2023/06/16 09:24:56;;;;;;;5.32;4.25;;;34.20;54.00;;;;;;5050701;28;20237;-87
2023/06/16 09:27:23;;;;;;;4.25;3.70;;;33.90;55.00;;;;;;5050687;28;20179;-88
2023/06/16 09:29:58;;;;;;;4.30;3.90;;;33.50;53.00;;;;;;5051787;28;20225;-87
2023/06/16 09:32:25;;;;;;;4.82;4.40;;;33.50;56.00;;;;;;5052465;28;20194;-88
2023/06/16 09:34:51;;;;;;;4.22;3.92;;;33.40;54.80;;;;;;5051834;28;20209;-87
2023/06/16 09:37:20;;;;;;;7.55;4.18;;;33.60;51.00;;;;;;5050735;28;20193;-87
2023/06/16 09:39:49;;;;;;;4.55;4.25;;;33.70;50.50;;;;;;5046152;28;20171;-88
2023/06/16 09:42:18;;;;;;;3.95;3.30;;;34.00;47.20;;;;;;5035203;28;20190;-88
2023/06/16 09:44:44;;;;;;;5.03;3.65;;;33.20;50.00;;;;;;5051293;28;20293;-88
2023/06/16 09:47:14;;;;;;;13.60;4.32;;;33.20;49.40;;;;;;5050193;28;20207;-85
2023/06/16 09:49:39;;;;;;;3.97;3.65;;;33.60;53.70;;;;;;5051941;28;20198;-85
2023/06/16 09:52:05;;;;;;;9.07;4.07;;;33.90;50.90;;;;;;5055886;28;20182;-85
2023/06/16 09:54:33;;;;;;;4.82;4.38;;;33.70;51.10;;;;;;5037429;28;20190;-85
2023/06/16 09:57:01;;;;;;;6.70;3.85;;;33.70;52.60;;;;;;5057076;28;20278;-88
2023/06/16 09:59:27;;;;;;;6.65;4.63;;;33.50;47.90;;;;;;5055865;28;20178;-88
2023/06/16 10:01:55;;;;;;;4.15;3.83;;;33.60;53.20;;;;;;5055859;28;20549;-88
2023/06/16 10:04:23;;;;;;;5.78;5.18;;;33.50;53.90;;;;;;5056852;28;20688;-88
2023/06/16 10:06:54;;;;;;;4.05;3.75;;;33.80;51.50;;;;;;5056574;28;20182;-88
2023/06/16 10:09:44;;;;;;;4.18;3.78;;;34.20;51.00;;;;;;5055100;28;20247;-88
2023/06/16 10:12:15;;;;;;;6.18;3.92;;;34.80;51.10;;;;;;5057904;28;20187;-88
2023/06/16 10:14:44;;;;;;;7.50;3.70;;;34.80;47.40;;;;;;5059409;28;20260;-87
2023/06/16 10:17:10;;;;;;;4.05;3.50;;;34.60;48.20;;;;;;5060688;28;20607;-85
2023/06/16 10:19:43;;;;;;;8.48;4.53;;;34.60;46.30;;;;;;5044103;28;20230;-85
2023/06/16 10:22:10;;;;;;;4.95;4.45;;;34.60;48.70;;;;;;5038635;28;20183;-86
2023/06/16 10:24:36;;;;;;;4.95;3.85;;;35.10;50.00;;;;;;5038721;28;20202;-86
2023/06/16 10:27:02;;;;;;;4.25;3.60;;;35.00;43.90;;;;;;5039518;28;20179;-85
2023/06/16 10:29:28;;;;;;;3.20;3.00;;;35.10;46.20;;;;;;5035983;28;20264;-86
2023/06/16 10:32:10;;;;;;;3.78;3.47;;;35.20;42.80;;;;;;5033585;28;20172;-87
2023/06/16 10:34:49;;;;;;;6.15;3.90;;;34.90;45.30;;;;;;5034527;28;20260;-85
2023/06/16 10:37:16;;;;;;;4.60;4.10;;;34.90;44.70;;;;;;5034691;28;20171;-86
2023/06/16 10:39:46;;;;;;;4.35;3.90;;;34.90;43.00;;;;;;5016956;28;20270;-86
2023/06/16 10:42:13;;;;;;;4.45;4.05;;;34.30;40.90;;;;;;5032223;28;20187;-87
2023/06/16 10:44:39;;;;;;;8.20;4.40;;;33.40;41.20;;;;;;5033597;28;20191;-86
2023/06/16 10:47:11;;;;;;;5.13;4.63;;;33.20;40.50;;;;;;5033933;28;20263;-86
2023/06/16 10:49:57;;;;;;;4.72;4.22;;;33.40;40.20;;;;;;5032474;28;20208;-85
2023/06/16 10:52:26;;;;;;;3.88;3.58;;;33.60;45.30;;;;;;5035195;28;20677;-85
2023/06/16 10:54:55;;;;;;;4.45;3.67;;;34.20;43.10;;;;;;5032777;28;20200;-85
2023/06/16 10:57:26;;;;;;;4.45;3.92;;;34.70;41.70;;;;;;5034218;28;20231;-87
2023/06/16 10:59:57;;;;;;;5.15;3.22;;;35.00;38.70;;;;;;5035338;28;20203;-86
2023/06/16 11:02:27;;;;;;;4.35;3.90;;;34.70;43.10;;;;;;5058583;28;20175;-85
2023/06/16 11:05:08;;;;;;;4.60;4.20;;;34.70;42.00;;;;;;5044790;28;20570;-85
2023/06/16 11:07:46;;;;;;;3.95;3.65;;;34.30;42.80;;;;;;5037319;28;20187;-85
2023/06/16 11:10:18;;;;;;;10.48;4.72;;;34.60;42.80;;;;;;5036654;28;20211;-85
2023/06/16 11:12:45;;;;;;;4.30;3.83;;;34.80;39.00;;;;;;5037205;28;20682;-85
2023/06/16 11:15:11;;;;;;;4.70;3.42;;;34.90;42.60;;;;;;5036124;28;20215;-85
2023/06/16 11:17:36;;;;;;;4.70;4.30;;;35.10;42.50;;;;;;5036066;28;20541;-86
2023/06/16 11:20:06;;;;;;;4.65;4.10;;;35.20;40.30;;;;;;5034232;28;20237;-86
2023/06/16 11:22:33;;;;;;;4.55;4.13;;;35.20;39.80;;;;;;5035642;28;20261;-86
2023/06/16 11:24:59;;;;;;;3.80;3.50;;;35.20;39.20;;;;;;5033064;28;20192;-86
2023/06/16 11:27:26;;;;;;;5.72;4.05;;;35.40;38.60;;;;;;5034526;28;20194;-85
2023/06/16 11:29:54;;;;;;;4.15;3.33;;;35.40;41.10;;;;;;5033883;28;20214;-85
2023/06/16 11:32:28;;;;;;;5.00;4.05;;;35.60;41.40;;;;;;5032692;28;20701;-86
2023/06/16 11:34:56;;;;;;;4.38;4.07;;;35.80;40.70;;;;;;5033762;28;20206;-85
2023/06/16 11:37:51;;;;;;;4.25;3.88;;;35.50;37.30;;;;;;5049619;28;20175;-85
2023/06/16 11:40:22;;;;;;;3.92;3.63;;;34.40;37.80;;;;;;5034009;28;20190;-86
2023/06/16 11:43:02;;;;;;;6.60;3.95;;;34.00;38.50;;;;;;5044036;28;20206;-85
2023/06/16 11:45:38;;;;;;;4.78;3.72;;;33.80;37.20;;;;;;5051838;28;20237;-87
2023/06/16 11:48:07;;;;;;;4.55;4.15;;;33.80;39.60;;;;;;5052703;28;20179;-85
2023/06/16 11:50:33;;;;;;;4.75;4.28;;;34.00;42.40;;;;;;5053432;28;20205;-85
2023/06/16 11:52:59;;;;;;;4.70;4.25;;;34.00;39.60;;;;;;5037723;28;20183;-85
2023/06/16 11:55:27;;;;;;;7.75;4.22;;;34.30;39.20;;;;;;5031402;28;20197;-86
2023/06/16 11:57:52;;;;;;;4.72;4.20;;;34.40;38.60;;;;;;5034051;28;20168;-88
2023/06/16 12:00:20;;;;;;;4.20;3.90;;;34.40;35.30;;;;;;5032948;28;20612;-85
2023/06/16 12:02:48;;;;;;;4.30;4.00;;;34.20;36.40;;;;;;5034010;28;20672;-85
2023/06/16 12:05:26;;;;;;;8.07;4.05;;;34.30;38.60;;;;;;5031808;28;20286;-85
2023/06/16 12:07:52;;;;;;;4.68;4.13;;;34.60;38.80;;;;;;5015866;28;20183;-85
2023/06/16 12:10:18;;;;;;;4.95;4.55;;;34.90;38.20;;;;;;5031646;28;20203;-85
2023/06/16 12:12:45;;;;;;;4.72;4.32;;;35.00;35.70;;;;;;5032257;28;20203;-85
2023/06/16 12:15:19;;;;;;;6.20;3.90;;;35.00;34.50;;;;;;5034889;28;20199;-88
2023/06/16 12:17:47;;;;;;;4.50;4.10;;;35.10;36.50;;;;;;5050708;28;20175;-85
2023/06/16 12:20:14;;;;;;;4.68;4.28;;;35.20;37.50;;;;;;5055432;28;20619;-87
2023/06/16 12:22:39;;;;;;;5.18;4.68;;;35.60;35.40;;;;;;5052404;28;20248;-88
2023/06/16 12:25:14;;;;;;;4.53;4.15;;;36.20;36.40;;;;;;5054290;22;20215;-66
2023/06/16 12:27:49;;;;;;;4.60;4.10;;;36.40;32.30;;;;;;5031350;28;20544;-66
2023/06/16 12:30:15;;;;;;;4.30;3.90;;;35.90;33.60;;;;;;5030535;28;20468;-66
2023/06/16 12:32:41;;;;;;;4.45;4.00;;;36.00;35.60;;;;;;5031884;28;20690;-66
2023/06/16 12:35:08;;;;;;;5.32;4.35;;;36.20;36.10;;;;;;5030835;28;20203;-67
2023/06/16 12:37:34;;;;;;;5.75;5.13;;;36.20;34.10;;;;;;5031320;28;20302;-67
2023/06/16 12:40:10;;;;;;;6.22;4.70;;;36.20;36.70;;;;;;5051271;22;20218;-87
2023/06/16 12:42:37;;;;;;;4.38;3.83;;;36.30;35.50;;;;;;5035190;28;20183;-88
2023/06/16 12:45:06;;;;;;;6.28;4.75;;;35.70;34.90;;;;;;5051330;28;20691;-87
2023/06/16 12:47:33;;;;;;;6.95;6.35;;;35.30;34.10;;;;;;5051140;28;20171;-88